Time;durP1;ratioP1;P1;durP2;ratioP2;P2;SDS_P1;SDS_P2;PMS_P1;PMS_P2;Temp;Humidity;BMP_temperature;BMP_pressure;BME280_temperature;BME280_humidity;BME280_pressure;Samples;Min_cycle;Max_cycle;Signal;HPM_P1;HPM_P2
2021/07/26 00:01:58;;;;;;;12.35;8.53;;;;;;;16.37;80.99;95749.33;1795439;80;21485;-60
2021/07/26 00:04:24;;;;;;;10.25;8.55;;;;;;;16.32;80.56;95744.18;1795449;80;21018;-60
2021/07/26 00:06:50;;;;;;;10.48;9.15;;;;;;;16.28;80.67;95740.36;1795456;80;21007;-60
2021/07/26 00:09:17;;;;;;;11.60;9.53;;;;;;;16.22;81.02;95740.14;1788960;80;21046;-61
2021/07/26 00:11:44;;;;;;;13.00;9.53;;;;;;;16.21;80.52;95735.75;1786920;80;21406;-60
2021/07/26 00:14:10;;;;;;;10.93;8.70;;;;;;;16.25;80.52;95742.67;1786883;80;21066;-60
2021/07/26 00:16:36;;;;;;;10.78;9.65;;;;;;;16.21;80.33;95743.74;1787273;80;21066;-60
2021/07/26 00:19:03;;;;;;;12.25;10.23;;;;;;;16.12;80.08;95750.73;1786699;80;21023;-60
2021/07/26 00:21:30;;;;;;;13.00;10.68;;;;;;;16.09;80.56;95744.20;1786890;80;21023;-60
2021/07/26 00:23:56;;;;;;;13.15;10.20;;;;;;;15.99;80.80;95739.22;1786858;80;21118;-60
2021/07/26 00:26:24;;;;;;;13.50;9.48;;;;;;;15.98;80.97;95734.83;1787145;80;20987;-60
2021/07/26 00:28:53;;;;;;;13.45;10.70;;;;;;;15.96;81.63;95740.67;1786996;80;21110;-60
2021/07/26 00:31:19;;;;;;;11.55;10.38;;;;;;;15.92;81.17;95743.02;1787357;80;20995;-60
2021/07/26 00:34:08;;;;;;;11.53;10.03;;;;;;;15.87;81.76;95737.01;1786512;80;21046;-60
2021/07/26 00:36:38;;;;;;;12.37;10.90;;;;;;;15.77;82.11;95731.63;1787146;80;21011;-60
2021/07/26 00:39:08;;;;;;;11.57;10.23;;;;;;;15.76;81.68;95733.89;1786756;80;21422;-60
2021/07/26 00:41:36;;;;;;;10.15;9.08;;;;;;;15.78;81.46;95728.06;1787212;80;21007;-60
2021/07/26 00:44:03;;;;;;;12.50;9.88;;;;;;;15.71;81.51;95726.07;1786907;80;20987;-60
2021/07/26 00:46:31;;;;;;;13.03;10.60;;;;;;;15.67;81.49;95723.55;1787188;80;21454;-60
2021/07/26 00:48:58;;;;;;;9.75;8.75;;;;;;;15.68;81.68;95723.50;1786906;80;21011;-60
2021/07/26 00:51:25;;;;;;;10.90;9.78;;;;;;;15.70;81.79;95728.34;1787063;80;20971;-60
2021/07/26 00:53:52;;;;;;;12.23;10.53;;;;;;;15.70;81.46;95733.66;1786869;80;21007;-61
2021/07/26 00:56:20;;;;;;;11.18;9.55;;;;;;;15.69;82.00;95723.92;1787239;80;21043;-60
2021/07/26 00:58:47;;;;;;;12.33;9.40;;;;;;;15.67;81.41;95724.87;1787317;80;20982;-60
2021/07/26 01:01:13;;;;;;;10.20;8.75;;;;;;;15.65;81.45;95728.04;1786984;80;21034;-60
2021/07/26 01:03:42;;;;;;;10.80;8.65;;;;;;;15.65;81.70;95736.02;1787090;80;21019;-60
2021/07/26 01:06:09;;;;;;;12.63;9.15;;;;;;;15.69;81.86;95738.55;1786888;80;21019;-60
2021/07/26 01:08:36;;;;;;;10.45;8.80;;;;;;;15.64;81.50;95735.63;1786940;80;21043;-60
2021/07/26 01:11:04;;;;;;;11.78;9.43;;;;;;;15.63;81.61;95734.77;1786828;80;21142;-60
2021/07/26 01:13:31;;;;;;;10.85;9.10;;;;;;;15.62;81.60;95734.81;1787240;80;21476;-60
2021/07/26 01:15:58;;;;;;;10.43;8.18;;;;;;;15.67;81.59;95734.18;1786946;80;21014;-60
2021/07/26 01:18:36;;;;;;;9.13;8.23;;;;;;;15.66;81.57;95728.00;1787140;80;20991;-60
2021/07/26 01:21:13;;;;;;;13.00;8.95;;;;;;;15.73;81.49;95724.70;1754178;80;21054;-60
2021/07/26 01:23:43;;;;;;;9.65;8.65;;;;;;;15.77;81.44;95721.88;1787150;80;21508;-60
2021/07/26 01:26:13;;;;;;;10.03;8.90;;;;;;;15.75;81.40;95719.73;1787160;80;21046;-60
2021/07/26 01:28:44;;;;;;;11.53;9.03;;;;;;;15.71;81.66;95726.55;1787192;80;21425;-60
2021/07/26 01:31:13;;;;;;;11.50;9.20;;;;;;;15.71;81.86;95722.55;1787148;80;21002;-60
2021/07/26 01:33:42;;;;;;;12.30;9.25;;;;;;;15.79;82.10;95725.79;1787027;80;21022;-60
2021/07/26 01:36:10;;;;;;;12.20;9.20;;;;;;;15.81;81.71;95729.73;1787074;80;20964;-60
2021/07/26 01:38:37;;;;;;;10.80;9.25;;;;;;;15.81;81.87;95739.91;1786843;80;21038;-60
2021/07/26 01:41:04;;;;;;;14.70;9.00;;;;;;;15.79;81.97;95736.43;1787384;80;21002;-60
2021/07/26 01:43:38;;;;;;;13.22;8.95;;;;;;;15.83;81.39;95731.41;1786987;80;21481;-60
2021/07/26 01:46:33;;;;;;;13.10;9.25;;;;;;;15.83;81.38;95738.06;1786896;80;21011;-60
2021/07/26 01:49:47;;;;;;;15.45;9.03;;;;;;;15.85;81.40;95738.88;1787078;80;21019;-60
2021/07/26 01:52:14;;;;;;;10.88;9.78;;;;;;;15.86;81.33;95729.10;1787320;80;21015;-60
2021/07/26 01:54:40;;;;;;;11.83;8.98;;;;;;;15.78;81.52;95731.58;1787054;80;21058;-60
2021/07/26 01:57:08;;;;;;;12.58;9.08;;;;;;;15.78;81.93;95727.59;1786966;80;21441;-60
2021/07/26 01:59:35;;;;;;;10.38;9.28;;;;;;;15.74;81.88;95723.76;1754487;80;20995;-60
2021/07/26 02:02:03;;;;;;;11.55;9.30;;;;;;;15.71;81.43;95723.88;1787294;80;21046;-60
2021/07/26 02:04:29;;;;;;;9.88;8.88;;;;;;;15.65;81.99;95720.95;1786820;80;21053;-60
2021/07/26 02:06:56;;;;;;;11.88;9.93;;;;;;;15.64;82.07;95732.97;1787174;80;21003;-60
2021/07/26 02:09:22;;;;;;;15.70;10.72;;;;;;;15.64;82.17;95729.84;1791996;80;21544;-60
2021/07/26 02:11:49;;;;;;;11.73;9.73;;;;;;;15.67;82.29;95741.69;1795043;80;21043;-60
2021/07/26 02:14:16;;;;;;;11.15;10.05;;;;;;;15.76;82.47;95736.08;1795497;80;21077;-60
2021/07/26 02:16:42;;;;;;;13.28;11.05;;;;;;;15.79;82.73;95732.44;1795509;80;21006;-60
2021/07/26 02:19:09;;;;;;;11.70;10.58;;;;;;;15.80;82.57;95739.52;1794833;80;21489;-60
2021/07/26 02:21:36;;;;;;;12.82;10.50;;;;;;;15.83;82.38;95737.20;1795177;80;21161;-60
2021/07/26 02:24:07;;;;;;;12.95;11.40;;;;;;;15.78;82.41;95740.89;1795579;80;21034;-60
2021/07/26 02:26:32;;;;;;;12.75;10.40;;;;;;;15.81;82.16;95730.59;1795295;80;21501;-60
2021/07/26 02:28:58;;;;;;;12.55;10.58;;;;;;;15.74;82.69;95736.59;1795116;80;21054;-60
2021/07/26 02:31:25;;;;;;;10.95;9.85;;;;;;;15.73;82.33;95741.52;1795326;80;21002;-60
2021/07/26 02:33:51;;;;;;;11.35;9.50;;;;;;;15.72;82.27;95743.79;1794959;80;20994;-60
2021/07/26 02:36:17;;;;;;;11.28;9.50;;;;;;;15.71;82.13;95747.82;1795434;80;21457;-60
2021/07/26 02:38:44;;;;;;;13.13;9.28;;;;;;;15.66;82.80;95745.29;1795047;80;20983;-60
2021/07/26 02:41:15;;;;;;;11.88;9.38;;;;;;;15.65;83.29;95744.00;1795574;80;20980;-60
2021/07/26 02:43:43;;;;;;;11.15;9.00;;;;;;;15.65;82.56;95743.56;1795649;80;21042;-60
2021/07/26 02:46:10;;;;;;;10.68;8.98;;;;;;;15.64;82.63;95735.63;1795141;80;21533;-60
2021/07/26 02:48:39;;;;;;;11.83;9.20;;;;;;;15.62;82.33;95734.81;1794886;80;21026;-61
2021/07/26 02:51:06;;;;;;;10.68;9.43;;;;;;;15.63;82.31;95738.76;1795498;80;21478;-60
2021/07/26 02:53:33;;;;;;;11.65;9.18;;;;;;;15.59;82.90;95737.12;1795022;80;21051;-60
2021/07/26 02:56:00;;;;;;;9.98;8.70;;;;;;;15.55;82.53;95735.05;1795428;80;20986;-60
2021/07/26 02:58:27;;;;;;;10.23;8.85;;;;;;;15.57;82.23;95744.28;1795058;80;21050;-60
2021/07/26 03:00:53;;;;;;;10.90;8.80;;;;;;;15.51;82.32;95746.70;1795138;80;21041;-60
2021/07/26 03:03:20;;;;;;;11.57;8.53;;;;;;;15.52;82.92;95752.88;1795116;80;21090;-60
2021/07/26 03:05:46;;;;;;;9.80;8.15;;;;;;;15.61;82.71;95752.56;1795435;80;21021;-60
2021/07/26 03:08:13;;;;;;;10.65;8.60;;;;;;;15.55;82.27;95751.47;1794658;80;21122;-60
2021/07/26 03:10:39;;;;;;;11.43;8.78;;;;;;;15.53;82.27;95751.98;1795430;80;21023;-60
2021/07/26 03:13:06;;;;;;;9.73;8.53;;;;;;;15.56;82.08;95760.70;1795085;80;21007;-60
2021/07/26 03:15:36;;;;;;;12.18;8.28;;;;;;;15.47;82.57;95753.50;1795373;80;21006;-60
2021/07/26 03:18:04;;;;;;;9.53;8.53;;;;;;;15.41;82.65;95761.25;1795622;80;21508;-60
2021/07/26 03:20:31;;;;;;;10.70;8.65;;;;;;;15.39;82.69;95761.75;1795021;80;21016;-60
2021/07/26 03:23:08;;;;;;;11.03;8.25;;;;;;;15.45;82.56;95766.88;1795125;80;21098;-60
2021/07/26 03:25:41;;;;;;;11.05;8.13;;;;;;;15.46;82.45;95765.08;1795391;80;21078;-60
2021/07/26 03:28:09;;;;;;;11.85;8.85;;;;;;;15.50;82.69;95774.23;1795233;80;21078;-60
2021/07/26 03:30:37;;;;;;;10.40;8.53;;;;;;;15.49;82.32;95764.97;1795807;80;21429;-60
2021/07/26 03:33:04;;;;;;;9.20;8.20;;;;;;;15.51;82.45;95771.10;1795461;80;21038;-60
2021/07/26 03:35:32;;;;;;;11.35;8.43;;;;;;;15.52;82.59;95773.72;1795406;80;20990;-60
2021/07/26 03:37:59;;;;;;;12.68;9.00;;;;;;;15.55;82.78;95774.08;1795356;80;21001;-60
2021/07/26 03:40:26;;;;;;;10.43;8.95;;;;;;;15.62;82.94;95778.23;1795086;80;21024;-60
2021/07/26 03:42:53;;;;;;;11.65;9.00;;;;;;;15.70;82.85;95777.98;1795481;80;21078;-60
2021/07/26 03:45:21;;;;;;;10.80;8.50;;;;;;;15.75;82.54;95784.91;1795251;80;21477;-60
2021/07/26 03:47:49;;;;;;;10.38;8.30;;;;;;;15.76;81.97;95791.09;1795829;80;21006;-60
2021/07/26 03:50:16;;;;;;;10.25;8.95;;;;;;;15.70;81.52;95792.18;1794909;80;21049;-60
2021/07/26 03:52:52;;;;;;;14.40;9.18;;;;;;;15.71;82.10;95790.38;1795718;80;21050;-60
2021/07/26 03:55:22;;;;;;;10.88;8.78;;;;;;;15.70;82.74;95789.95;1795540;80;20955;-60
2021/07/26 03:57:50;;;;;;;11.15;9.40;;;;;;;15.68;82.49;95786.48;1795259;80;21520;-60
2021/07/26 04:00:21;;;;;;;10.18;9.05;;;;;;;15.71;82.51;95785.92;1795522;80;21034;-60
2021/07/26 04:03:40;;;;;;;10.98;9.48;;;;;;;15.74;82.80;95787.14;1795519;80;21591;-60
2021/07/26 04:05:30;;;;;;;9.80;8.20;;;;;;;15.74;83.39;95787.14;1784109;80;20959;-60
2021/07/26 04:07:54;;;;;;;12.40;10.28;;;;;;;15.79;82.61;95776.34;1795228;80;21067;-60
2021/07/26 04:10:21;;;;;;;9.18;8.23;;;;;;;15.87;82.62;95788.03;1789329;80;21539;-60
2021/07/26 04:12:51;;;;;;;12.25;9.83;;;;;;;15.95;82.87;95794.83;1787025;80;21019;-60
2021/07/26 04:15:17;;;;;;;12.18;9.35;;;;;;;16.03;83.01;95795.88;1786960;80;20995;-60
2021/07/26 04:17:43;;;;;;;10.10;8.60;;;;;;;16.15;83.15;95794.53;1786600;80;21019;-60
2021/07/26 04:20:12;;;;;;;8.33;7.37;;;;;;;16.26;83.01;95802.14;1786818;80;20983;-60
2021/07/26 04:22:38;;;;;;;12.28;9.05;;;;;;;16.30;82.44;95808.59;1787158;80;20975;-60
2021/07/26 04:25:07;;;;;;;12.47;9.55;;;;;;;16.36;82.64;95806.20;1786716;80;21087;-60
2021/07/26 04:27:35;;;;;;;11.75;8.40;;;;;;;16.48;82.57;95803.06;1787345;80;21497;-60
2021/07/26 04:30:05;;;;;;;11.08;8.48;;;;;;;16.61;82.29;95798.99;1787305;80;20982;-59
2021/07/26 04:32:42;;;;;;;9.85;8.60;;;;;;;16.72;82.17;95803.03;1786926;80;21565;-60
2021/07/26 04:35:11;;;;;;;12.07;8.85;;;;;;;16.84;82.04;95803.91;1786237;80;20995;-60
2021/07/26 04:37:38;;;;;;;11.93;9.50;;;;;;;17.00;82.17;95789.02;1787148;80;21492;-60
2021/07/26 04:40:10;;;;;;;9.95;8.50;;;;;;;17.21;81.88;95790.40;1787295;80;20983;-61
2021/07/26 04:42:39;;;;;;;10.98;8.78;;;;;;;17.36;80.91;95784.89;1787133;80;21010;-61
2021/07/26 04:45:08;;;;;;;10.40;8.33;;;;;;;17.49;80.60;95792.80;1787058;80;20983;-61
2021/07/26 04:47:34;;;;;;;10.38;8.83;;;;;;;17.61;79.86;95794.91;1787273;80;21450;-60
2021/07/26 04:50:02;;;;;;;13.45;8.88;;;;;;;17.69;79.42;95793.28;1787105;80;21054;-60
2021/07/26 04:52:28;;;;;;;10.53;8.68;;;;;;;18.01;79.25;95789.67;1786613;80;21014;-60
2021/07/26 04:54:55;;;;;;;12.98;9.48;;;;;;;18.01;79.25;95789.67;1787440;80;21011;-60
2021/07/26 04:57:22;;;;;;;12.82;9.43;;;;;;;18.19;79.23;95787.98;1787352;80;21007;-60
2021/07/26 04:59:48;;;;;;;11.50;9.35;;;;;;;18.37;78.76;95779.14;1787035;80;21544;-60
2021/07/26 05:02:15;;;;;;;12.10;8.20;;;;;;;18.50;78.28;95784.30;1787066;80;21071;-59
2021/07/26 05:04:41;;;;;;;10.68;9.25;;;;;;;18.62;77.35;95782.84;1786885;80;21105;-60
2021/07/26 05:07:08;;;;;;;11.65;10.20;;;;;;;18.67;77.27;95779.95;1786678;80;21043;-60
2021/07/26 05:09:38;;;;;;;11.10;10.00;;;;;;;18.70;76.71;95782.50;1789751;80;21054;-60
2021/07/26 05:12:14;;;;;;;11.65;9.43;;;;;;;18.81;77.04;95782.88;1795599;80;21511;-60
2021/07/26 05:14:49;;;;;;;10.88;9.45;;;;;;;18.91;77.17;95784.16;1794986;80;21023;-60
2021/07/26 05:17:19;;;;;;;11.78;10.40;;;;;;;19.06;77.05;95793.25;1795469;80;21038;-60
2021/07/26 05:19:44;;;;;;;12.10;10.90;;;;;;;19.19;76.92;95797.05;1794991;80;21050;-60
2021/07/26 05:22:10;;;;;;;11.38;9.78;;;;;;;19.30;76.67;95799.19;1795278;80;21469;-60
2021/07/26 05:24:37;;;;;;;12.40;10.13;;;;;;;19.41;76.49;95799.53;1795209;80;21579;-60
2021/07/26 05:27:05;;;;;;;11.83;10.60;;;;;;;19.52;76.01;95792.29;1795534;80;20998;-60
2021/07/26 05:29:32;;;;;;;11.65;9.85;;;;;;;19.62;75.76;95789.53;1764708;80;21532;-60
2021/07/26 05:31:59;;;;;;;13.32;10.80;;;;;;;19.72;75.25;95785.95;1795167;80;21038;-60
2021/07/26 05:34:27;;;;;;;11.85;10.65;;;;;;;19.83;75.29;95792.98;1795260;80;20986;-60
2021/07/26 05:36:54;;;;;;;12.15;10.85;;;;;;;20.00;75.21;95794.75;1795404;80;21516;-60
2021/07/26 05:39:25;;;;;;;12.30;11.10;;;;;;;20.18;74.70;95800.94;1795678;80;20998;-59
2021/07/26 05:42:00;;;;;;;12.70;10.90;;;;;;;20.32;74.59;95805.58;1795424;80;21071;-60
2021/07/26 05:44:27;;;;;;;12.03;10.75;;;;;;;20.36;72.22;95805.82;1764597;80;21002;-60
2021/07/26 05:46:54;;;;;;;10.20;9.10;;;;;;;20.42;72.32;95801.94;1795168;80;21018;-60
2021/07/26 05:49:20;;;;;;;13.88;10.70;;;;;;;20.51;69.44;95799.63;1795309;80;20978;-60
2021/07/26 05:51:47;;;;;;;13.95;10.38;;;;;;;20.71;71.24;95801.25;1794847;80;21093;-60
2021/07/26 05:54:13;;;;;;;11.35;9.80;;;;;;;20.88;69.12;95799.42;1795384;80;21049;-60
2021/07/26 05:56:46;;;;;;;14.10;10.30;;;;;;;21.05;67.51;95800.69;1795309;80;21503;-60
2021/07/26 05:59:13;;;;;;;;;;;;;;;21.15;68.42;95797.86;1798257;80;20987;-60
2021/07/26 06:01:49;;;;;;;13.28;10.68;;;;;;;21.24;68.56;95807.67;1762099;81;20087;-61
2021/07/26 06:04:18;;;;;;;17.20;11.55;;;;;;;21.29;68.50;95806.48;1795426;80;21020;-60
2021/07/26 06:06:48;;;;;;;12.88;11.55;;;;;;;21.34;68.11;95804.40;1795207;80;21023;-60
2021/07/26 06:09:15;;;;;;;14.13;12.00;;;;;;;21.42;69.14;95809.35;1794280;80;20963;-61
2021/07/26 06:11:44;;;;;;;18.37;12.40;;;;;;;21.53;69.36;95810.92;1787308;80;21042;-60
2021/07/26 06:14:13;;;;;;;16.87;12.60;;;;;;;21.56;68.69;95812.08;1787091;80;21071;-60
2021/07/26 06:16:46;;;;;;;14.90;12.13;;;;;;;21.60;68.57;95816.80;1786811;80;21019;-60
2021/07/26 06:19:13;;;;;;;19.10;12.40;;;;;;;21.59;68.16;95810.55;1787312;80;21007;-60
2021/07/26 06:21:51;;;;;;;14.78;12.13;;;;;;;21.52;65.62;95816.36;1787120;80;21022;-60
2021/07/26 06:24:20;;;;;;;14.87;12.80;;;;;;;21.53;67.13;95812.74;1786976;80;21097;-60
2021/07/26 06:26:48;;;;;;;18.48;11.88;;;;;;;21.71;67.36;95809.45;1787090;80;20991;-60
2021/07/26 06:29:15;;;;;;;15.10;11.57;;;;;;;21.86;66.66;95813.91;1786808;80;21023;-60
2021/07/26 06:31:43;;;;;;;15.98;12.50;;;;;;;22.03;65.72;95815.11;1786595;80;21520;-60
2021/07/26 06:34:10;;;;;;;14.55;12.07;;;;;;;22.17;66.34;95812.05;1787049;80;21058;-60
2021/07/26 06:36:39;;;;;;;14.85;13.15;;;;;;;22.19;66.17;95817.75;1786928;80;21134;-60
2021/07/26 06:39:07;;;;;;;14.30;12.45;;;;;;;22.19;66.40;95812.38;1786994;80;21003;-60
2021/07/26 06:41:34;;;;;;;15.28;12.40;;;;;;;22.17;66.48;95812.91;1787340;80;21026;-60
2021/07/26 06:44:01;;;;;;;16.65;12.33;;;;;;;22.20;66.51;95818.16;1787108;80;21019;-60
2021/07/26 06:46:27;;;;;;;13.78;12.37;;;;;;;22.37;66.92;95810.38;1787159;80;21027;-60
2021/07/26 06:48:54;;;;;;;13.93;12.73;;;;;;;22.59;66.53;95813.09;1787084;80;21018;-60
2021/07/26 06:51:22;;;;;;;15.80;12.75;;;;;;;22.77;66.15;95804.33;1786543;80;21022;-61
2021/07/26 06:53:49;;;;;;;14.47;12.98;;;;;;;22.92;66.06;95810.56;1787022;80;21067;-60
2021/07/26 06:56:16;;;;;;;12.90;11.48;;;;;;;23.04;65.23;95812.02;1787046;80;21055;-61
2021/07/26 06:58:42;;;;;;;15.93;12.68;;;;;;;23.18;64.78;95808.41;1787080;80;20978;-60
2021/07/26 07:01:14;;;;;;;17.25;13.32;;;;;;;23.19;63.59;95815.55;1786971;80;20975;-60
2021/07/26 07:03:43;;;;;;;13.58;11.90;;;;;;;23.22;64.51;95812.64;1787244;80;20951;-61
2021/07/26 07:06:15;;;;;;;14.18;12.73;;;;;;;23.49;64.43;95815.84;1786942;80;21047;-61
2021/07/26 07:08:43;;;;;;;13.63;11.27;;;;;;;23.68;64.06;95819.51;1787349;80;20956;-61
2021/07/26 07:11:15;;;;;;;13.48;12.18;;;;;;;23.65;62.71;95806.25;1786699;80;21771;-61
2021/07/26 07:13:44;;;;;;;;;;;;;;;23.74;63.17;95810.58;1789715;80;20975;-61
2021/07/26 07:16:16;;;;;;;12.43;11.20;;;;;;;23.80;63.82;95810.64;1756150;82;20102;-61
2021/07/26 07:18:42;;;;;;;13.48;12.18;;;;;;;23.83;63.49;95812.26;1756023;82;21086;-60
2021/07/26 07:21:21;;;;;;;12.68;11.48;;;;;;;23.83;63.61;95819.00;1786661;80;21041;-61
2021/07/26 07:23:50;;;;;;;13.40;12.03;;;;;;;23.84;63.92;95818.02;1786815;80;21066;-61
2021/07/26 07:26:18;;;;;;;13.93;12.13;;;;;;;23.87;64.00;95812.45;1786959;80;21062;-60
2021/07/26 07:28:45;;;;;;;13.68;12.30;;;;;;;23.88;63.99;95810.11;1787144;80;20999;-61
2021/07/26 07:31:15;;;;;;;14.23;12.82;;;;;;;23.89;64.51;95810.48;1786882;80;20975;-60
2021/07/26 07:33:41;;;;;;;17.60;12.43;;;;;;;23.84;64.21;95812.62;1787118;80;21007;-60
2021/07/26 07:36:08;;;;;;;14.18;12.78;;;;;;;23.69;64.38;95803.74;1786630;80;21030;-61
2021/07/26 07:38:35;;;;;;;17.32;13.70;;;;;;;23.61;64.62;95818.19;1786756;80;21022;-61
2021/07/26 07:41:04;;;;;;;14.50;13.00;;;;;;;23.50;65.02;95814.87;1786881;80;21006;-60
2021/07/26 07:43:32;;;;;;;17.40;13.88;;;;;;;23.46;65.77;95823.65;1786753;80;21038;-60
2021/07/26 07:45:59;;;;;;;18.52;14.43;;;;;;;23.47;66.44;95824.50;1786744;80;21057;-60
2021/07/26 07:48:27;;;;;;;17.50;12.47;;;;;;;23.44;66.67;95824.23;1786954;80;20999;-60
2021/07/26 07:50:56;;;;;;;14.63;12.45;;;;;;;23.43;66.64;95833.73;1786929;80;20971;-60
2021/07/26 07:53:23;;;;;;;16.48;12.15;;;;;;;23.49;66.88;95843.64;1786815;80;21011;-60
2021/07/26 07:55:51;;;;;;;14.23;12.05;;;;;;;23.59;66.90;95841.20;1786991;80;21003;-61
2021/07/26 07:58:21;;;;;;;13.95;11.05;;;;;;;23.84;66.81;95839.57;1786904;80;21019;-61
2021/07/26 08:00:52;;;;;;;12.70;10.53;;;;;;;24.17;66.52;95841.34;1786281;80;20991;-61
2021/07/26 08:03:20;;;;;;;11.57;9.88;;;;;;;24.46;63.77;95849.27;1786946;80;21019;-60
2021/07/26 08:05:48;;;;;;;14.53;11.28;;;;;;;24.44;62.48;95851.66;1786706;80;21380;-61
2021/07/26 08:08:16;;;;;;;13.18;11.78;;;;;;;24.41;62.74;95846.85;1786724;80;21083;-60
2021/07/26 08:10:44;;;;;;;12.25;11.05;;;;;;;24.29;61.94;95846.84;1790199;80;21078;-60
2021/07/26 08:13:11;;;;;;;13.83;11.70;;;;;;;24.14;62.45;95843.36;1795111;80;21099;-60
2021/07/26 08:15:37;;;;;;;12.28;10.68;;;;;;;24.13;62.84;95847.04;1795363;80;21057;-60
2021/07/26 08:18:06;;;;;;;14.70;12.18;;;;;;;24.12;63.28;95846.19;1795140;80;21129;-61
2021/07/26 08:20:32;;;;;;;14.10;11.95;;;;;;;24.16;62.87;95846.34;1795602;80;21425;-61
2021/07/26 08:22:59;;;;;;;13.18;11.75;;;;;;;24.15;63.14;95843.27;1794909;80;21169;-60
2021/07/26 08:25:26;;;;;;;12.80;11.48;;;;;;;24.24;63.23;95844.95;1795328;80;21006;-60
2021/07/26 08:27:58;;;;;;;15.08;11.73;;;;;;;24.28;62.45;95848.68;1795088;80;21090;-61
2021/07/26 08:30:32;;;;;;;12.68;11.48;;;;;;;24.28;62.04;95846.48;1795503;80;21050;-60
2021/07/26 08:33:00;;;;;;;13.30;11.97;;;;;;;24.28;62.25;95849.17;1795329;80;20986;-60
2021/07/26 08:35:28;;;;;;;15.03;11.50;;;;;;;24.35;62.08;95850.48;1795572;80;20963;-60
2021/07/26 08:37:56;;;;;;;13.45;11.97;;;;;;;24.29;61.45;95852.23;1795322;80;21066;-60
2021/07/26 08:40:26;;;;;;;15.75;11.78;;;;;;;24.25;61.95;95856.13;1795510;80;20983;-60
2021/07/26 08:42:54;;;;;;;13.43;12.13;;;;;;;24.40;63.56;95857.77;1795610;80;21027;-60
2021/07/26 08:45:21;;;;;;;16.67;12.90;;;;;;;24.45;62.79;95854.30;1795392;80;21070;-60
2021/07/26 08:47:49;;;;;;;13.95;12.50;;;;;;;24.58;63.22;95855.65;1795431;80;21007;-60
2021/07/26 08:50:19;;;;;;;12.70;11.48;;;;;;;24.68;62.22;95849.98;1795591;80;21532;-61
2021/07/26 08:52:48;;;;;;;13.28;11.88;;;;;;;24.88;62.06;95851.77;1795320;80;21011;-61
2021/07/26 08:55:18;;;;;;;14.45;12.28;;;;;;;25.09;61.23;95852.91;1795598;80;21074;-61
2021/07/26 08:57:49;;;;;;;14.15;11.80;;;;;;;25.29;60.82;95859.59;1795518;80;20989;-61
2021/07/26 09:00:18;;;;;;;12.65;11.15;;;;;;;25.51;60.60;95854.84;1795560;80;21082;-61
2021/07/26 09:02:46;;;;;;;17.12;12.60;;;;;;;25.70;60.26;95851.61;1795713;80;21485;-61
2021/07/26 09:05:14;;;;;;;15.00;11.75;;;;;;;25.94;59.99;95851.66;1795139;80;21030;-61
2021/07/26 09:07:43;;;;;;;12.98;11.60;;;;;;;26.11;59.66;95845.83;1795592;80;20963;-61
2021/07/26 09:10:15;;;;;;;13.65;12.18;;;;;;;26.32;59.84;95854.13;1794768;80;21106;-62
2021/07/26 09:12:44;;;;;;;13.72;12.33;;;;;;;26.42;58.53;95852.92;1753677;80;21512;-62
2021/07/26 09:15:30;;;;;;;13.75;12.30;;;;;;;26.51;58.53;95852.22;1787251;80;21476;-61
2021/07/26 09:18:00;;;;;;;15.68;11.73;;;;;;;26.63;58.12;95849.05;1787118;80;21054;-61
2021/07/26 09:20:29;;;;;;;12.50;11.40;;;;;;;26.71;57.90;95842.58;1787039;80;21089;-61
2021/07/26 09:23:12;;;;;;;13.03;11.83;;;;;;;26.64;57.18;95838.63;1786965;80;21011;-61
2021/07/26 09:25:42;;;;;;;14.75;11.15;;;;;;;26.62;58.44;95850.05;1785927;80;21015;-61
2021/07/26 09:28:17;;;;;;;13.03;11.40;;;;;;;26.74;57.54;95849.59;1787071;80;21007;-61
2021/07/26 09:30:54;;;;;;;12.78;11.48;;;;;;;26.90;58.74;95847.87;1787337;80;21500;-60
2021/07/26 09:33:28;;;;;;;13.18;11.80;;;;;;;27.02;56.88;95846.03;1785806;80;20951;-61
2021/07/26 09:36:21;;;;;;;13.03;11.73;;;;;;;27.09;59.29;95852.66;1787143;80;20994;-61
2021/07/26 09:38:53;;;;;;;;;;;;;;;27.24;58.49;95851.95;1789833;80;21006;-60
2021/07/26 09:41:45;;;;;;;12.00;10.90;;;;;;;27.28;56.95;95852.08;1754307;82;20102;-60
2021/07/26 09:44:13;;;;;;;13.78;12.03;;;;;;;27.23;57.18;95857.87;1778340;80;21017;-60
2021/07/26 09:46:41;;;;;;;13.90;11.43;;;;;;;27.31;56.14;95848.62;1786779;80;21094;-60
2021/07/26 09:49:17;;;;;;;15.18;12.10;;;;;;;27.39;57.92;95846.63;1787241;80;20987;-61
2021/07/26 09:52:08;;;;;;;24.87;11.65;;;;;;;27.48;58.73;95844.53;1787126;80;21101;-60
2021/07/26 09:54:46;;;;;;;14.45;11.65;;;;;;;27.69;58.06;95841.89;1787136;80;20987;-60
2021/07/26 09:57:24;;;;;;;11.88;10.68;;;;;;;27.99;59.01;95847.14;1787230;80;21038;-61
2021/07/26 09:59:52;;;;;;;12.93;11.18;;;;;;;28.17;57.05;95848.31;1787139;80;21031;-60
2021/07/26 10:02:24;;;;;;;13.78;11.60;;;;;;;28.40;56.08;95849.06;1786971;80;21082;-61
2021/07/26 10:04:51;;;;;;;13.85;11.03;;;;;;;28.55;56.23;95842.84;1787398;80;20975;-60
2021/07/26 10:07:19;;;;;;;14.00;10.72;;;;;;;28.68;54.83;95840.78;1786579;80;21575;-61
2021/07/26 10:09:48;;;;;;;13.08;11.63;;;;;;;28.75;53.54;95848.38;1787265;80;20936;-60
2021/07/26 10:12:20;;;;;;;12.60;11.22;;;;;;;28.69;54.08;95844.34;1793625;80;21018;-61
2021/07/26 10:14:49;;;;;;;14.00;12.60;;;;;;;28.59;55.75;95842.92;1795530;80;21017;-61
2021/07/26 10:17:16;;;;;;;13.28;11.70;;;;;;;28.57;55.02;95844.91;1795447;80;21002;-61
2021/07/26 10:19:42;;;;;;;13.30;10.98;;;;;;;28.60;55.93;95842.42;1795139;80;21050;-61
2021/07/26 10:22:14;;;;;;;16.55;11.00;;;;;;;28.61;55.07;95837.38;1795179;80;21081;-61
2021/07/26 10:24:47;;;;;;;12.97;11.67;;;;;;;28.57;53.94;95841.34;1794242;80;21133;-61
2021/07/26 10:27:26;;;;;;;14.05;11.20;;;;;;;28.37;54.21;95839.80;1795503;80;20954;-61
2021/07/26 10:29:57;;;;;;;12.85;11.12;;;;;;;28.23;54.81;95842.36;1794611;80;21107;-61
2021/07/26 10:32:35;;;;;;;16.83;11.43;;;;;;;28.28;55.47;95849.25;1795739;80;21017;-61
2021/07/26 10:35:14;;;;;;;11.50;10.30;;;;;;;28.23;55.06;95845.07;1795190;80;21066;-61
2021/07/26 10:37:47;;;;;;;11.78;10.60;;;;;;;28.31;55.81;95845.77;1785695;80;21484;-61
2021/07/26 10:40:21;;;;;;;;;;;;;;;28.57;55.54;95852.19;1798092;80;21070;-61
2021/07/26 10:42:50;;;;;;;11.85;10.45;;;;;;;28.77;55.75;95850.47;1762437;81;20427;-60
2021/07/26 10:45:37;;;;;;;14.38;11.10;;;;;;;28.83;54.61;95845.88;1795370;80;21464;-61
2021/07/26 10:48:30;;;;;;;13.35;11.28;;;;;;;28.82;53.26;95849.56;1795189;80;21021;-61
2021/07/26 10:51:02;;;;;;;14.78;11.85;;;;;;;28.77;53.23;95845.03;1795246;80;21012;-61
2021/07/26 10:53:40;;;;;;;14.47;11.78;;;;;;;28.60;56.05;95840.59;1795169;80;21636;-61
2021/07/26 10:56:11;;;;;;;15.88;11.55;;;;;;;28.60;55.03;95835.62;1795552;80;20995;-61
2021/07/26 10:58:49;;;;;;;13.73;10.93;;;;;;;28.55;55.22;95841.95;1795642;80;21520;-61
2021/07/26 11:01:27;;;;;;;12.05;10.75;;;;;;;28.48;55.23;95839.79;1795104;80;21018;-61
2021/07/26 11:03:56;;;;;;;12.55;10.70;;;;;;;28.39;55.46;95836.47;1795310;80;21022;-61
2021/07/26 11:06:43;;;;;;;11.73;10.55;;;;;;;28.69;55.54;95828.91;1795255;80;20987;-61
2021/07/26 11:09:32;;;;;;;14.60;10.60;;;;;;;29.14;55.43;95833.17;1795346;80;20983;-60
2021/07/26 11:11:55;;;;;;;15.28;10.53;;;;;;;29.53;54.21;95829.22;1794218;80;21084;-61
2021/07/26 11:14:22;;;;;;;19.15;10.72;;;;;;;29.84;53.69;95825.11;1795128;80;21010;-61
2021/07/26 11:17:02;;;;;;;14.25;11.38;;;;;;;30.04;51.16;95821.40;1795399;80;21059;-61
2021/07/26 11:19:49;;;;;;;14.93;10.13;;;;;;;30.10;51.76;95819.96;1795022;80;21094;-61
2021/07/26 11:22:23;;;;;;;11.97;10.20;;;;;;;30.16;52.21;95821.63;1795364;80;21504;-61
2021/07/26 11:24:55;;;;;;;13.53;10.03;;;;;;;30.39;50.74;95818.60;1795301;80;21083;-61
2021/07/26 11:27:39;;;;;;;12.18;9.68;;;;;;;30.30;49.63;95822.21;1795632;80;21118;-61
2021/07/26 11:30:11;;;;;;;11.10;10.08;;;;;;;30.34;50.67;95819.06;1795355;80;21087;-61
2021/07/26 11:32:36;;;;;;;13.43;10.48;;;;;;;30.39;51.77;95826.30;1794658;80;21082;-61
2021/07/26 11:35:04;;;;;;;11.93;10.70;;;;;;;30.56;51.86;95819.73;1795333;80;21019;-61